New Holland, South Dakota
Current Conditions -  °F | °C
As of 1:53 PM on Friday 28 Nov 2014 (Local Time) from KMHE Reporting Station
Clear Clear  
Wind Chill: 33°   Ceiling: Unl
Heat Index: 40°   Visibility: 10mi
Dew Point: 27°   Wind: 10mph
Humidity: 60%   Direction: 130°SE
Pressure: 29.66"   Gusts: NA
Location:  43.43°N, 98.61°W
Report Text: KMHE 281953Z AUTO 13009KT 10SM CLR 04/M03 A2966 RMK AO2 SLP056 T00441028
Loading
Personal Weather Stations






























Interactive Weather Map New forecast layout! Learn more

10-Day Weather Forecast

Advertisements
Track Severe Weather on mobile